createdAt,value
2023-04-16T00:02:43.832Z,8.94
2023-04-16T00:05:47.533Z,8.94
2023-04-16T00:08:49.617Z,8.79
2023-04-16T00:11:52.136Z,8.88
2023-04-16T00:14:54.346Z,8.80
2023-04-16T00:17:57.098Z,8.81
2023-04-16T00:20:59.868Z,8.74
2023-04-16T00:24:02.234Z,8.74
2023-04-16T00:27:04.787Z,8.91
2023-04-16T00:30:08.777Z,8.91
2023-04-16T00:33:11.234Z,8.70
2023-04-16T00:36:13.894Z,8.70
2023-04-16T00:39:16.163Z,9.06
2023-04-16T00:42:18.856Z,9.07
2023-04-16T00:45:21.350Z,9.08
2023-04-16T00:48:24.302Z,8.96
2023-04-16T00:51:27.237Z,9.32
2023-04-16T00:54:33.021Z,9.03
2023-04-16T00:57:35.087Z,9.14
2023-04-16T01:00:37.899Z,9.16
2023-04-16T01:03:48.763Z,8.88
2023-04-16T01:06:51.824Z,9.20
2023-04-16T01:09:54.200Z,9.34
2023-04-16T01:12:57.111Z,9.01
2023-04-16T01:16:00.501Z,8.94
2023-04-16T01:19:03.056Z,9.14
2023-04-16T01:22:06.421Z,9.30
2023-04-16T01:25:09.674Z,9.10
2023-04-16T01:28:12.142Z,9.28
2023-04-16T01:31:14.953Z,9.06
2023-04-16T01:34:30.677Z,9.13
2023-04-16T01:37:34.338Z,8.99
2023-04-16T01:40:38.226Z,8.94
2023-04-16T01:43:42.469Z,8.91
2023-04-16T01:46:45.628Z,9.10
2023-04-16T01:49:48.545Z,9.16
2023-04-16T01:52:51.155Z,9.07
2023-04-16T01:55:54.049Z,9.16
2023-04-16T01:58:56.415Z,9.10
2023-04-16T02:02:13.892Z,9.04
2023-04-16T02:05:16.306Z,9.06
2023-04-16T02:08:18.947Z,9.07
2023-04-16T02:11:22.737Z,8.88
2023-04-16T02:14:26.960Z,8.96
2023-04-16T02:17:29.217Z,8.94
2023-04-16T02:20:47.134Z,8.84
2023-04-16T02:23:52.103Z,8.83
2023-04-16T02:26:59.743Z,8.84
2023-04-16T02:30:03.025Z,8.79
2023-04-16T02:33:10.466Z,9.01
2023-04-16T02:36:14.881Z,8.99
2023-04-16T02:39:17.408Z,8.87
2023-04-16T02:42:19.545Z,8.83
2023-04-16T02:45:22.935Z,9.04
2023-04-16T02:48:25.822Z,9.07
2023-04-16T02:51:29.684Z,8.97
2023-04-16T02:54:31.796Z,8.87
2023-04-16T02:57:34.753Z,8.90
2023-04-16T03:00:38.443Z,8.90
2023-04-16T03:03:41.548Z,8.84
2023-04-16T03:06:43.850Z,9.17
2023-04-16T03:09:46.685Z,8.97
2023-04-16T03:12:48.983Z,8.99
2023-04-16T03:15:51.550Z,9.06
2023-04-16T03:18:53.758Z,8.93
2023-04-16T03:21:56.521Z,8.83
2023-04-16T03:24:58.888Z,8.77
2023-04-16T03:28:03.657Z,8.83
2023-04-16T03:31:06.473Z,8.87
2023-04-16T03:34:11.513Z,9.11
2023-04-16T03:37:15.737Z,9.11
2023-04-16T03:40:18.370Z,9.00
2023-04-16T03:43:21.165Z,8.96
2023-04-16T03:46:23.847Z,8.76
2023-04-16T03:49:26.607Z,8.90
2023-04-16T03:52:29.386Z,8.97
2023-04-16T03:55:32.179Z,8.76
2023-04-16T03:58:34.971Z,8.87
2023-04-16T04:01:37.428Z,8.87
2023-04-16T04:04:41.295Z,8.80
2023-04-16T04:07:45.773Z,8.87
2023-04-16T04:10:51.307Z,8.88
2023-04-16T04:13:54.471Z,8.94
2023-04-16T04:16:57.659Z,8.87
2023-04-16T04:20:01.686Z,8.93
2023-04-16T04:23:06.448Z,8.97
2023-04-16T04:26:09.464Z,8.99
2023-04-16T04:29:12.187Z,8.90
2023-04-16T04:32:15.014Z,9.06
2023-04-16T04:35:17.963Z,9.01
2023-04-16T04:38:22.602Z,8.99
2023-04-16T04:41:27.407Z,9.18
2023-04-16T04:44:29.662Z,9.27
2023-04-16T04:47:32.887Z,9.13
2023-04-16T04:50:35.249Z,8.81
2023-04-16T04:53:38.478Z,8.96
2023-04-16T04:56:41.251Z,9.10
2023-04-16T04:59:44.090Z,9.03
2023-04-16T05:02:48.223Z,9.07
2023-04-16T05:05:51.028Z,8.86
2023-04-16T05:08:53.247Z,8.93
2023-04-16T05:11:56.120Z,8.73
2023-04-16T05:14:58.372Z,8.96
2023-04-16T05:18:00.915Z,9.17
2023-04-16T05:21:03.219Z,8.96
2023-04-16T05:24:06.523Z,8.94
2023-04-16T05:27:08.621Z,9.18
2023-04-16T05:30:11.902Z,9.42
2023-04-16T05:33:15.865Z,9.21
2023-04-16T05:36:18.633Z,9.27
2023-04-16T05:39:21.416Z,9.17
2023-04-16T05:42:24.019Z,9.04
2023-04-16T05:45:27.959Z,9.01
2023-04-16T05:48:31.154Z,9.24
2023-04-16T05:51:33.772Z,9.47
2023-04-16T05:54:36.132Z,9.49
2023-04-16T05:57:38.261Z,9.63
2023-04-16T06:00:41.265Z,9.61
2023-04-16T06:03:43.637Z,9.44
2023-04-16T06:06:46.763Z,9.44
2023-04-16T06:09:48.756Z,9.57
2023-04-16T06:12:51.616Z,9.72
2023-04-16T06:15:53.811Z,9.72
2023-04-16T06:18:56.354Z,9.48
2023-04-16T06:21:58.581Z,9.89
2023-04-16T06:25:01.348Z,9.75
2023-04-16T06:28:03.705Z,9.51
2023-04-16T06:31:06.522Z,9.54
2023-04-16T06:34:09.252Z,9.47
2023-04-16T06:37:12.136Z,9.45
2023-04-16T06:40:14.506Z,9.38
2023-04-16T06:43:18.217Z,9.31
2023-04-16T06:46:20.746Z,9.32
2023-04-16T06:49:23.372Z,9.28
2023-04-16T06:52:25.880Z,9.31
2023-04-16T06:55:28.515Z,9.45
2023-04-16T06:58:30.833Z,9.28
2023-04-16T07:01:34.786Z,9.48
2023-04-16T07:04:36.918Z,9.39
2023-04-16T07:07:39.370Z,9.28
2023-04-16T07:10:41.561Z,9.39
2023-04-16T07:13:44.037Z,9.41
2023-04-16T07:16:46.333Z,9.65
2023-04-16T07:19:49.177Z,9.48
2023-04-16T07:22:51.278Z,9.69
2023-04-16T07:25:53.810Z,9.11
2023-04-16T07:28:56.204Z,9.03
2023-04-16T07:31:58.869Z,9.37
2023-04-16T07:35:01.009Z,9.52
2023-04-16T07:38:03.262Z,9.34
2023-04-16T07:41:05.957Z,9.26
2023-04-16T07:44:11.227Z,9.21
2023-04-16T07:47:13.845Z,9.13
2023-04-16T07:50:16.709Z,9.30
2023-04-16T07:53:18.775Z,9.41
2023-04-16T07:56:21.962Z,9.71
2023-04-16T07:59:24.735Z,9.63
2023-04-16T08:02:27.723Z,9.57
2023-04-16T08:05:29.903Z,9.81
2023-04-16T08:08:32.472Z,9.72
2023-04-16T08:11:34.625Z,9.78
2023-04-16T08:14:37.526Z,9.51
2023-04-16T08:17:39.839Z,9.61
2023-04-16T08:20:43.120Z,9.47
2023-04-16T08:23:45.345Z,9.71
2023-04-16T08:26:48.175Z,9.67
2023-04-16T08:29:50.299Z,9.62
2023-04-16T08:32:53.963Z,10.16
2023-04-16T08:35:56.059Z,10.12
2023-04-16T08:38:58.923Z,9.96
2023-04-16T08:42:06.258Z,9.85
2023-04-16T08:45:15.998Z,9.74
2023-04-16T08:48:22.119Z,10.03
2023-04-16T08:51:27.674Z,10.03
2023-04-16T08:54:37.760Z,10.26
2023-04-16T08:57:47.605Z,9.86
2023-04-16T09:00:50.812Z,9.95
2023-04-16T09:03:54.386Z,10.30
2023-04-16T09:06:59.701Z,10.17
2023-04-16T09:10:03.663Z,10.29
2023-04-16T09:13:06.280Z,10.40
2023-04-16T09:16:09.806Z,10.23
2023-04-16T09:19:12.516Z,10.09
2023-04-16T09:22:15.324Z,9.83
2023-04-16T09:25:17.618Z,9.83
2023-04-16T09:28:39.430Z,10.10
2023-04-16T09:31:41.943Z,10.16
2023-04-16T09:35:01.426Z,9.95
2023-04-16T09:38:04.426Z,10.10
2023-04-16T09:41:10.545Z,10.56
2023-04-16T09:44:12.685Z,11.14
2023-04-16T09:47:15.367Z,11.38
2023-04-16T09:50:19.748Z,10.70
2023-04-16T09:53:29.261Z,10.78
2023-04-16T09:56:31.525Z,10.88
2023-04-16T09:59:36.203Z,10.91
2023-04-16T10:02:42.200Z,11.19
2023-04-16T10:05:45.454Z,10.56
2023-04-16T10:08:53.251Z,10.83
2023-04-16T10:11:55.858Z,11.42
2023-04-16T10:14:58.091Z,11.68
2023-04-16T10:18:01.058Z,11.58
2023-04-16T10:21:03.652Z,11.45
2023-04-16T10:24:06.770Z,10.97
2023-04-16T10:27:09.007Z,11.01
2023-04-16T10:30:13.339Z,11.12
2023-04-16T10:33:15.462Z,10.60
2023-04-16T10:36:23.859Z,10.63
2023-04-16T10:39:29.708Z,10.44
2023-04-16T10:42:32.408Z,10.57
2023-04-16T10:45:38.989Z,10.93
2023-04-16T10:48:49.625Z,11.38
2023-04-16T10:51:55.742Z,11.34
2023-04-16T10:54:59.688Z,11.21
2023-04-16T10:58:01.967Z,11.01
2023-04-16T11:01:12.616Z,11.00
2023-04-16T11:04:21.047Z,10.98
2023-04-16T11:07:35.377Z,11.17
2023-04-16T11:10:39.761Z,11.51
2023-04-16T11:13:43.615Z,10.73
2023-04-16T11:16:45.964Z,10.70
2023-04-16T11:19:49.036Z,10.95
2023-04-16T11:22:53.007Z,11.14
2023-04-16T11:25:58.723Z,11.18
2023-04-16T11:29:01.273Z,11.28
2023-04-16T11:32:03.804Z,11.19
2023-04-16T11:35:17.352Z,11.19
2023-04-16T11:38:19.848Z,11.22
2023-04-16T11:41:22.314Z,11.26
2023-04-16T11:44:27.437Z,11.01
2023-04-16T11:47:31.883Z,10.95
2023-04-16T11:50:35.487Z,11.22
2023-04-16T11:53:46.612Z,11.24
2023-04-16T11:56:51.080Z,11.11
2023-04-16T12:00:01.405Z,11.36
2023-04-16T12:03:15.461Z,11.55
2023-04-16T12:06:18.241Z,11.45
2023-04-16T12:09:27.955Z,11.72
2023-04-16T12:12:32.516Z,11.96
2023-04-16T12:15:46.217Z,11.52
2023-04-16T12:19:04.074Z,11.69
2023-04-16T12:22:06.880Z,12.17
2023-04-16T12:25:14.610Z,12.19
2023-04-16T12:28:42.399Z,12.45
2023-04-16T12:31:45.713Z,12.54
2023-04-16T12:34:57.487Z,12.42
2023-04-16T12:38:00.467Z,12.26
2023-04-16T12:41:03.554Z,12.16
2023-04-16T12:44:14.124Z,12.01
2023-04-16T12:47:16.637Z,11.82
2023-04-16T12:50:19.440Z,11.75
2023-04-16T12:53:22.054Z,12.19
2023-04-16T12:56:24.285Z,12.00
2023-04-16T12:59:27.131Z,12.54
2023-04-16T13:02:29.948Z,12.44
2023-04-16T13:05:32.855Z,11.70
2023-04-16T13:08:35.206Z,11.61
2023-04-16T13:11:37.719Z,11.86
2023-04-16T13:14:42.772Z,11.66
2023-04-16T13:17:48.588Z,11.46
2023-04-16T13:20:50.923Z,11.61
2023-04-16T13:23:54.291Z,11.75
2023-04-16T13:26:56.742Z,11.48
2023-04-16T13:29:59.468Z,11.79
2023-04-16T13:33:01.817Z,11.97
2023-04-16T13:36:04.895Z,12.10
2023-04-16T13:39:11.600Z,11.97
2023-04-16T13:42:14.404Z,11.75
2023-04-16T13:45:16.640Z,11.86
2023-04-16T13:48:19.244Z,11.73
2023-04-16T13:51:23.066Z,11.72
2023-04-16T13:54:25.745Z,11.97
2023-04-16T13:57:28.996Z,11.97
2023-04-16T14:00:32.189Z,12.16
2023-04-16T14:03:38.775Z,11.91
2023-04-16T14:06:41.556Z,12.06
2023-04-16T14:09:43.949Z,12.01
2023-04-16T14:12:50.919Z,11.85
2023-04-16T14:15:57.445Z,12.19
2023-04-16T14:19:00.229Z,12.20
2023-04-16T14:22:02.780Z,11.86
2023-04-16T14:25:06.363Z,11.87
2023-04-16T14:28:09.563Z,12.04
2023-04-16T14:31:12.574Z,11.96
2023-04-16T14:34:15.006Z,12.12
2023-04-16T14:37:18.415Z,11.99
2023-04-16T14:40:20.750Z,11.97
2023-04-16T14:43:23.456Z,11.97
2023-04-16T14:46:27.330Z,12.10
2023-04-16T14:49:29.811Z,12.16
2023-04-16T14:52:32.643Z,12.16
2023-04-16T14:55:35.274Z,12.34
2023-04-16T14:58:39.311Z,12.37
2023-04-16T15:01:43.293Z,12.29
2023-04-16T15:04:45.911Z,12.47
2023-04-16T15:07:48.657Z,12.81
2023-04-16T15:10:52.032Z,13.14
2023-04-16T15:13:55.133Z,13.25
2023-04-16T15:16:57.872Z,13.47
2023-04-16T15:20:00.848Z,12.94
2023-04-16T15:23:03.557Z,12.89
2023-04-16T15:26:06.696Z,12.60
2023-04-16T15:29:08.772Z,13.09
2023-04-16T15:32:11.912Z,13.26
2023-04-16T15:35:14.901Z,12.81
2023-04-16T15:38:17.946Z,12.88
2023-04-16T15:41:20.565Z,12.98
2023-04-16T15:44:23.471Z,12.72
2023-04-16T15:47:25.678Z,12.37
2023-04-16T15:50:28.222Z,12.57
2023-04-16T15:53:30.620Z,12.41
2023-04-16T15:56:34.201Z,12.50
2023-04-16T16:14:37.020Z,13.27
2023-04-16T16:17:42.576Z,13.36
2023-04-16T16:20:44.941Z,13.27
2023-04-16T16:23:47.987Z,13.36
2023-04-16T16:26:50.324Z,12.38
2023-04-16T16:29:53.218Z,12.31
2023-04-16T16:32:58.096Z,12.21
2023-04-16T16:36:00.906Z,12.48
2023-04-16T16:39:04.318Z,12.55
2023-04-16T16:42:09.241Z,12.82
2023-04-16T16:45:11.824Z,12.77
2023-04-16T16:48:14.548Z,12.24
2023-04-16T16:51:19.612Z,12.34
2023-04-16T16:54:22.724Z,11.91
2023-04-16T16:57:25.158Z,12.50
2023-04-16T17:00:27.919Z,11.65
2023-04-16T17:03:30.218Z,11.32
2023-04-16T17:06:33.553Z,11.63
2023-04-16T17:09:38.892Z,11.89
2023-04-16T17:12:41.889Z,11.63
2023-04-16T17:15:44.489Z,11.46
2023-04-16T17:18:47.572Z,11.11
2023-04-16T17:21:50.825Z,10.74
2023-04-16T17:24:54.677Z,11.22
2023-04-16T17:27:56.794Z,11.48
2023-04-16T17:30:59.664Z,11.58
2023-04-16T17:34:05.101Z,11.11
2023-04-16T17:37:07.552Z,10.98
2023-04-16T17:40:10.597Z,10.88
2023-04-16T17:43:13.620Z,10.77
2023-04-16T17:46:15.895Z,10.95
2023-04-16T17:49:18.858Z,11.18
2023-04-16T17:52:21.808Z,10.84
2023-04-16T17:55:24.592Z,10.68
2023-04-16T17:58:26.702Z,10.68
2023-04-16T18:01:29.076Z,10.98
2023-04-16T18:04:31.465Z,11.12
2023-04-16T18:07:35.660Z,11.24
2023-04-16T18:10:38.807Z,11.89
2023-04-16T18:13:43.973Z,11.62
2023-04-16T18:16:49.586Z,11.65
2023-04-16T18:19:52.279Z,11.29
2023-04-16T18:22:54.491Z,11.15
2023-04-16T18:25:57.829Z,11.40
2023-04-16T18:29:00.397Z,11.69
2023-04-16T18:32:04.721Z,11.34
2023-04-16T18:35:08.282Z,11.19
2023-04-16T18:38:11.187Z,11.55
2023-04-16T18:41:20.552Z,11.70
2023-04-16T18:44:24.442Z,11.94
2023-04-16T18:47:26.585Z,11.55
2023-04-16T18:50:29.159Z,11.79
2023-04-16T18:53:31.589Z,11.12
2023-04-16T18:56:34.368Z,11.12
2023-04-16T18:59:36.653Z,11.59
2023-04-16T19:02:40.445Z,11.59
2023-04-16T19:05:42.691Z,11.66
2023-04-16T19:08:45.432Z,11.48
2023-04-16T19:11:49.550Z,11.91
2023-04-16T19:14:54.092Z,11.70
2023-04-16T19:17:56.641Z,11.31
2023-04-16T19:21:02.130Z,11.68
2023-04-16T19:24:04.791Z,11.89
2023-04-16T19:27:07.817Z,11.69
2023-04-16T19:30:10.909Z,11.94
2023-04-16T19:33:13.698Z,12.57
2023-04-16T19:36:15.948Z,12.41
2023-04-16T19:39:18.462Z,12.61
2023-04-16T19:42:21.115Z,12.09
2023-04-16T19:45:26.115Z,11.38
2023-04-16T19:48:28.329Z,10.97
2023-04-16T19:51:31.427Z,11.29
2023-04-16T19:54:35.387Z,10.83
2023-04-16T19:57:38.052Z,11.28
2023-04-16T20:00:43.769Z,11.58
2023-04-16T20:03:46.280Z,11.68
2023-04-16T20:06:48.532Z,11.72
2023-04-16T20:09:51.187Z,11.73
2023-04-16T20:12:53.530Z,11.35
2023-04-16T20:15:56.467Z,12.12
2023-04-16T20:19:03.638Z,12.33
2023-04-16T20:22:07.588Z,11.79
2023-04-16T20:25:10.553Z,11.97
2023-04-16T20:28:16.721Z,11.48
2023-04-16T20:31:19.080Z,11.68
2023-04-16T20:34:21.775Z,11.82
2023-04-16T20:37:24.014Z,12.42
2023-04-16T20:40:32.961Z,11.40
2023-04-16T20:43:38.845Z,11.03
2023-04-16T20:46:42.490Z,10.46
2023-04-16T20:49:49.796Z,10.84
2023-04-16T20:52:52.689Z,11.10
2023-04-16T20:55:55.451Z,12.06
2023-04-16T20:58:59.538Z,13.01
2023-04-16T21:02:01.807Z,12.42
2023-04-16T21:05:05.674Z,12.16
2023-04-16T21:08:08.214Z,12.45
2023-04-16T21:11:11.307Z,12.26
2023-04-16T21:14:14.191Z,12.23
2023-04-16T21:21:34.429Z,12.17
2023-04-16T21:25:18.192Z,12.91
2023-04-16T21:28:27.082Z,13.06
2023-04-16T21:36:46.445Z,12.26
2023-04-16T21:39:48.817Z,11.89
2023-04-16T21:42:52.487Z,12.06
2023-04-16T21:45:55.316Z,12.04
2023-04-16T21:48:57.449Z,12.33
2023-04-16T21:52:02.561Z,12.84
2023-04-16T21:55:05.170Z,11.43
2023-04-16T21:58:07.751Z,11.93
2023-04-16T22:01:11.061Z,12.30
2023-04-16T22:04:14.440Z,13.49
2023-04-16T22:07:17.116Z,13.25
2023-04-16T22:10:19.937Z,13.47
2023-04-16T22:13:22.951Z,14.76
2023-04-16T22:16:26.007Z,15.44
2023-04-16T22:19:28.537Z,14.52
2023-04-16T22:22:31.275Z,15.40
2023-04-16T22:25:33.862Z,15.67
2023-04-16T22:28:36.391Z,14.69
2023-04-16T22:31:39.085Z,14.13
2023-04-16T22:34:41.902Z,14.04
2023-04-16T22:37:43.953Z,14.10
2023-04-16T22:40:49.600Z,14.20
2023-04-16T22:43:52.555Z,13.87
2023-04-16T22:46:55.397Z,13.47
2023-04-16T22:49:57.609Z,12.92
2023-04-16T22:53:00.529Z,13.91
2023-04-16T22:56:02.787Z,13.69
2023-04-16T22:59:08.632Z,13.73
2023-04-16T23:02:11.054Z,14.38
2023-04-16T23:05:13.553Z,14.65
2023-04-16T23:08:15.718Z,13.78
2023-04-16T23:11:18.588Z,13.19
2023-04-16T23:14:21.554Z,12.71
2023-04-16T23:17:24.483Z,13.40
2023-04-16T23:20:26.508Z,14.16
2023-04-16T23:23:29.112Z,13.57
2023-04-16T23:26:37.997Z,12.62
2023-04-16T23:29:40.515Z,13.20
2023-04-16T23:32:42.729Z,13.01
2023-04-16T23:35:47.562Z,11.76
2023-04-16T23:38:49.984Z,11.35
2023-04-16T23:41:52.861Z,12.40
2023-04-16T23:44:55.097Z,13.11
2023-04-16T23:47:58.082Z,13.90
2023-04-16T23:51:00.837Z,13.65
2023-04-16T23:54:03.331Z,14.45
2023-04-16T23:57:05.456Z,13.97
